sensor_id;sensor_type;location;lat;lon;timestamp;P1;P2;P0
70436;PMS5003;57877;39.750;-104.894;2022-10-16T00:01:30;0;0;
70436;PMS5003;57877;39.750;-104.894;2022-10-16T00:03:56;0;0;
70436;PMS5003;57877;39.750;-104.894;2022-10-16T00:06:22;0;0;
70436;PMS5003;57877;39.750;-104.894;2022-10-16T00:08:48;0;0;
70436;PMS5003;57877;39.750;-104.894;2022-10-16T00:11:15;0;0;
70436;PMS5003;57877;39.750;-104.894;2022-10-16T00:13:40;1;1;
70436;PMS5003;57877;39.750;-104.894;2022-10-16T00:16:06;0;0;
70436;PMS5003;57877;39.750;-104.894;2022-10-16T00:18:31;0;0;
70436;PMS5003;57877;39.750;-104.894;2022-10-16T00:21:01;0;0;
70436;PMS5003;57877;39.750;-104.894;2022-10-16T00:23:23;0;0;
70436;PMS5003;57877;39.750;-104.894;2022-10-16T00:28:15;2;2;
70436;PMS5003;57877;39.750;-104.894;2022-10-16T00:30:41;1;0;
70436;PMS5003;57877;39.750;-104.894;2022-10-16T00:33:07;1;1;
70436;PMS5003;57877;39.750;-104.894;2022-10-16T00:35:33;0;0;
70436;PMS5003;57877;39.750;-104.894;2022-10-16T00:37:59;1;1;
70436;PMS5003;57877;39.750;-104.894;2022-10-16T00:40:25;1;1;
70436;PMS5003;57877;39.750;-104.894;2022-10-16T00:42:51;2;2;
70436;PMS5003;57877;39.750;-104.894;2022-10-16T00:45:17;0;0;
70436;PMS5003;57877;39.750;-104.894;2022-10-16T00:47:43;4;3;
70436;PMS5003;57877;39.750;-104.894;2022-10-16T00:50:09;1;1;
70436;PMS5003;57877;39.750;-104.894;2022-10-16T00:52:35;3;3;
70436;PMS5003;57877;39.750;-104.894;2022-10-16T00:55:01;1;1;
70436;PMS5003;57877;39.750;-104.894;2022-10-16T00:57:27;3;3;
70436;PMS5003;57877;39.750;-104.894;2022-10-16T00:59:53;1;1;
70436;PMS5003;57877;39.750;-104.894;2022-10-16T01:02:19;2;2;
70436;PMS5003;57877;39.750;-104.894;2022-10-16T01:04:46;1;1;
70436;PMS5003;57877;39.750;-104.894;2022-10-16T01:07:12;4;3;
70436;PMS5003;57877;39.750;-104.894;2022-10-16T01:09:37;4;4;
70436;PMS5003;57877;39.750;-104.894;2022-10-16T01:12:05;3;3;
70436;PMS5003;57877;39.750;-104.894;2022-10-16T01:14:30;0;0;
70436;PMS5003;57877;39.750;-104.894;2022-10-16T01:16:57;0;0;
70436;PMS5003;57877;39.750;-104.894;2022-10-16T01:19:24;0;0;
70436;PMS5003;57877;39.750;-104.894;2022-10-16T01:21:46;0;0;
70436;PMS5003;57877;39.750;-104.894;2022-10-16T01:24:15;0;0;
70436;PMS5003;57877;39.750;-104.894;2022-10-16T01:26:44;0;0;
70436;PMS5003;57877;39.750;-104.894;2022-10-16T01:29:06;2;1;
70436;PMS5003;57877;39.750;-104.894;2022-10-16T01:31:31;3;3;
70436;PMS5003;57877;39.750;-104.894;2022-10-16T01:33:59;0;0;
70436;PMS5003;57877;39.750;-104.894;2022-10-16T01:36:24;1;0;
70436;PMS5003;57877;39.750;-104.894;2022-10-16T01:38:49;1;0;
70436;PMS5003;57877;39.750;-104.894;2022-10-16T01:41:15;0;0;
70436;PMS5003;57877;39.750;-104.894;2022-10-16T01:43:41;1;1;
70436;PMS5003;57877;39.750;-104.894;2022-10-16T01:46:06;0;0;
70436;PMS5003;57877;39.750;-104.894;2022-10-16T01:48:32;0;0;
70436;PMS5003;57877;39.750;-104.894;2022-10-16T01:50:59;0;0;
70436;PMS5003;57877;39.750;-104.894;2022-10-16T01:53:24;2;1;
70436;PMS5003;57877;39.750;-104.894;2022-10-16T01:55:50;0;0;
70436;PMS5003;57877;39.750;-104.894;2022-10-16T01:58:16;0;0;
70436;PMS5003;57877;39.750;-104.894;2022-10-16T02:00:43;0;0;
70436;PMS5003;57877;39.750;-104.894;2022-10-16T02:03:08;0;0;
70436;PMS5003;57877;39.750;-104.894;2022-10-16T02:05:38;0;0;
70436;PMS5003;57877;39.750;-104.894;2022-10-16T02:08:00;0;0;
70436;PMS5003;57877;39.750;-104.894;2022-10-16T02:10:26;0;0;
70436;PMS5003;57877;39.750;-104.894;2022-10-16T02:12:53;1;0;
70436;PMS5003;57877;39.750;-104.894;2022-10-16T02:15:18;0;0;
70436;PMS5003;57877;39.750;-104.894;2022-10-16T02:17:44;0;0;
70436;PMS5003;57877;39.750;-104.894;2022-10-16T02:20:10;0;0;
70436;PMS5003;57877;39.750;-104.894;2022-10-16T02:22:38;0;0;
70436;PMS5003;57877;39.750;-104.894;2022-10-16T02:25:03;0;0;
70436;PMS5003;57877;39.750;-104.894;2022-10-16T02:27:30;0;0;
70436;PMS5003;57877;39.750;-104.894;2022-10-16T02:29:55;0;0;
70436;PMS5003;57877;39.750;-104.894;2022-10-16T02:32:21;0;0;
70436;PMS5003;57877;39.750;-104.894;2022-10-16T02:34:46;0;0;
70436;PMS5003;57877;39.750;-104.894;2022-10-16T02:37:12;0;0;
70436;PMS5003;57877;39.750;-104.894;2022-10-16T02:39:38;0;0;
70436;PMS5003;57877;39.750;-104.894;2022-10-16T02:42:04;0;0;
70436;PMS5003;57877;39.750;-104.894;2022-10-16T02:44:30;0;0;
70436;PMS5003;57877;39.750;-104.894;2022-10-16T02:46:56;0;0;
70436;PMS5003;57877;39.750;-104.894;2022-10-16T02:49:22;0;0;
70436;PMS5003;57877;39.750;-104.894;2022-10-16T02:51:48;0;0;
70436;PMS5003;57877;39.750;-104.894;2022-10-16T02:54:13;0;0;
70436;PMS5003;57877;39.750;-104.894;2022-10-16T02:56:39;0;0;
70436;PMS5003;57877;39.750;-104.894;2022-10-16T02:59:05;0;0;
70436;PMS5003;57877;39.750;-104.894;2022-10-16T03:01:31;1;0;
70436;PMS5003;57877;39.750;-104.894;2022-10-16T03:03:57;0;0;
70436;PMS5003;57877;39.750;-104.894;2022-10-16T03:06:23;0;0;
70436;PMS5003;57877;39.750;-104.894;2022-10-16T03:08:49;0;0;
70436;PMS5003;57877;39.750;-104.894;2022-10-16T03:11:15;0;0;
70436;PMS5003;57877;39.750;-104.894;2022-10-16T03:13:41;0;0;
70436;PMS5003;57877;39.750;-104.894;2022-10-16T03:16:07;1;0;
70436;PMS5003;57877;39.750;-104.894;2022-10-16T03:18:33;0;0;
70436;PMS5003;57877;39.750;-104.894;2022-10-16T03:20:59;0;0;
70436;PMS5003;57877;39.750;-104.894;2022-10-16T03:23:25;0;0;
70436;PMS5003;57877;39.750;-104.894;2022-10-16T03:25:51;1;1;
70436;PMS5003;57877;39.750;-104.894;2022-10-16T03:28:17;0;0;
70436;PMS5003;57877;39.750;-104.894;2022-10-16T03:30:43;0;0;
70436;PMS5003;57877;39.750;-104.894;2022-10-16T03:33:09;0;0;
70436;PMS5003;57877;39.750;-104.894;2022-10-16T03:35:35;2;2;
70436;PMS5003;57877;39.750;-104.894;2022-10-16T03:38:01;0;0;
70436;PMS5003;57877;39.750;-104.894;2022-10-16T03:40:27;1;1;
70436;PMS5003;57877;39.750;-104.894;2022-10-16T03:42:53;0;0;
70436;PMS5003;57877;39.750;-104.894;2022-10-16T03:45:19;0;0;
70436;PMS5003;57877;39.750;-104.894;2022-10-16T03:47:45;0;0;
70436;PMS5003;57877;39.750;-104.894;2022-10-16T03:50:11;0;0;
70436;PMS5003;57877;39.750;-104.894;2022-10-16T03:52:37;0;0;
70436;PMS5003;57877;39.750;-104.894;2022-10-16T03:55:03;2;1;
70436;PMS5003;57877;39.750;-104.894;2022-10-16T03:57:29;0;0;
70436;PMS5003;57877;39.750;-104.894;2022-10-16T03:59:54;0;0;
70436;PMS5003;57877;39.750;-104.894;2022-10-16T04:02:20;1;1;
70436;PMS5003;57877;39.750;-104.894;2022-10-16T04:04:46;0;0;
70436;PMS5003;57877;39.750;-104.894;2022-10-16T04:07:12;0;0;
70436;PMS5003;57877;39.750;-104.894;2022-10-16T04:09:38;0;0;
70436;PMS5003;57877;39.750;-104.894;2022-10-16T04:12:04;0;0;
70436;PMS5003;57877;39.750;-104.894;2022-10-16T04:14:30;3;2;
70436;PMS5003;57877;39.750;-104.894;2022-10-16T04:16:56;2;2;
70436;PMS5003;57877;39.750;-104.894;2022-10-16T04:19:22;0;0;
70436;PMS5003;57877;39.750;-104.894;2022-10-16T04:21:48;0;0;
70436;PMS5003;57877;39.750;-104.894;2022-10-16T04:24:14;2;1;
70436;PMS5003;57877;39.750;-104.894;2022-10-16T04:26:40;0;0;
70436;PMS5003;57877;39.750;-104.894;2022-10-16T04:29:06;1;1;
70436;PMS5003;57877;39.750;-104.894;2022-10-16T04:31:32;0;0;
70436;PMS5003;57877;39.750;-104.894;2022-10-16T04:33:58;0;0;
70436;PMS5003;57877;39.750;-104.894;2022-10-16T04:36:24;1;1;
70436;PMS5003;57877;39.750;-104.894;2022-10-16T04:38:50;0;0;
70436;PMS5003;57877;39.750;-104.894;2022-10-16T04:41:16;0;0;
70436;PMS5003;57877;39.750;-104.894;2022-10-16T04:43:42;0;0;
70436;PMS5003;57877;39.750;-104.894;2022-10-16T04:46:08;2;1;
70436;PMS5003;57877;39.750;-104.894;2022-10-16T04:48:34;0;0;
70436;PMS5003;57877;39.750;-104.894;2022-10-16T04:51:00;0;0;
70436;PMS5003;57877;39.750;-104.894;2022-10-16T04:53:26;0;0;
70436;PMS5003;57877;39.750;-104.894;2022-10-16T04:56:01;0;0;
70436;PMS5003;57877;39.750;-104.894;2022-10-16T04:58:18;0;0;
70436;PMS5003;57877;39.750;-104.894;2022-10-16T05:00:44;0;0;
70436;PMS5003;57877;39.750;-104.894;2022-10-16T05:03:09;1;0;
70436;PMS5003;57877;39.750;-104.894;2022-10-16T05:05:36;0;0;
70436;PMS5003;57877;39.750;-104.894;2022-10-16T05:08:02;0;0;
70436;PMS5003;57877;39.750;-104.894;2022-10-16T05:10:27;0;0;
70436;PMS5003;57877;39.750;-104.894;2022-10-16T05:12:53;0;0;
70436;PMS5003;57877;39.750;-104.894;2022-10-16T05:15:19;0;0;
70436;PMS5003;57877;39.750;-104.894;2022-10-16T05:17:45;1;0;
70436;PMS5003;57877;39.750;-104.894;2022-10-16T05:20:11;0;0;
70436;PMS5003;57877;39.750;-104.894;2022-10-16T05:22:37;0;0;
70436;PMS5003;57877;39.750;-104.894;2022-10-16T05:25:03;1;1;
70436;PMS5003;57877;39.750;-104.894;2022-10-16T05:27:29;1;1;
70436;PMS5003;57877;39.750;-104.894;2022-10-16T05:29:55;0;0;
70436;PMS5003;57877;39.750;-104.894;2022-10-16T05:32:21;1;0;
70436;PMS5003;57877;39.750;-104.894;2022-10-16T05:34:47;1;1;
70436;PMS5003;57877;39.750;-104.894;2022-10-16T05:37:13;0;0;
70436;PMS5003;57877;39.750;-104.894;2022-10-16T05:39:39;0;0;
70436;PMS5003;57877;39.750;-104.894;2022-10-16T05:42:05;0;0;
70436;PMS5003;57877;39.750;-104.894;2022-10-16T05:44:31;1;1;
70436;PMS5003;57877;39.750;-104.894;2022-10-16T05:46:57;0;0;
70436;PMS5003;57877;39.750;-104.894;2022-10-16T05:49:23;0;0;
70436;PMS5003;57877;39.750;-104.894;2022-10-16T05:51:49;0;0;
70436;PMS5003;57877;39.750;-104.894;2022-10-16T05:54:15;0;0;
70436;PMS5003;57877;39.750;-104.894;2022-10-16T05:56:40;0;0;
70436;PMS5003;57877;39.750;-104.894;2022-10-16T05:59:06;0;0;
70436;PMS5003;57877;39.750;-104.894;2022-10-16T06:01:32;0;0;
70436;PMS5003;57877;39.750;-104.894;2022-10-16T06:03:58;0;0;
70436;PMS5003;57877;39.750;-104.894;2022-10-16T06:06:25;1;1;
70436;PMS5003;57877;39.750;-104.894;2022-10-16T06:08:50;0;0;
70436;PMS5003;57877;39.750;-104.894;2022-10-16T06:11:17;0;0;
70436;PMS5003;57877;39.750;-104.894;2022-10-16T06:13:42;0;0;
70436;PMS5003;57877;39.750;-104.894;2022-10-16T06:16:08;0;0;
70436;PMS5003;57877;39.750;-104.894;2022-10-16T06:18:34;0;0;
70436;PMS5003;57877;39.750;-104.894;2022-10-16T06:21:06;0;0;
70436;PMS5003;57877;39.750;-104.894;2022-10-16T06:23:28;0;0;
70436;PMS5003;57877;39.750;-104.894;2022-10-16T06:25:51;0;0;
70436;PMS5003;57877;39.750;-104.894;2022-10-16T06:28:17;0;0;
70436;PMS5003;57877;39.750;-104.894;2022-10-16T06:30:43;1;0;
70436;PMS5003;57877;39.750;-104.894;2022-10-16T06:33:09;0;0;
70436;PMS5003;57877;39.750;-104.894;2022-10-16T06:35:35;1;0;
70436;PMS5003;57877;39.750;-104.894;2022-10-16T06:38:01;0;0;
70436;PMS5003;57877;39.750;-104.894;2022-10-16T06:40:27;0;0;
70436;PMS5003;57877;39.750;-104.894;2022-10-16T06:42:54;0;0;
70436;PMS5003;57877;39.750;-104.894;2022-10-16T06:45:19;0;0;
70436;PMS5003;57877;39.750;-104.894;2022-10-16T06:47:45;0;0;
70436;PMS5003;57877;39.750;-104.894;2022-10-16T06:50:11;0;0;
70436;PMS5003;57877;39.750;-104.894;2022-10-16T06:52:37;0;0;
70436;PMS5003;57877;39.750;-104.894;2022-10-16T06:55:03;1;1;
70436;PMS5003;57877;39.750;-104.894;2022-10-16T06:57:29;0;0;
70436;PMS5003;57877;39.750;-104.894;2022-10-16T06:59:55;0;0;
70436;PMS5003;57877;39.750;-104.894;2022-10-16T07:02:21;1;1;
70436;PMS5003;57877;39.750;-104.894;2022-10-16T07:04:46;0;0;
70436;PMS5003;57877;39.750;-104.894;2022-10-16T07:07:12;0;0;
70436;PMS5003;57877;39.750;-104.894;2022-10-16T07:09:38;1;1;
70436;PMS5003;57877;39.750;-104.894;2022-10-16T07:12:04;1;1;
70436;PMS5003;57877;39.750;-104.894;2022-10-16T07:14:30;1;1;
70436;PMS5003;57877;39.750;-104.894;2022-10-16T07:16:56;0;0;
70436;PMS5003;57877;39.750;-104.894;2022-10-16T07:19:22;2;1;
70436;PMS5003;57877;39.750;-104.894;2022-10-16T07:21:48;1;1;
70436;PMS5003;57877;39.750;-104.894;2022-10-16T07:24:15;0;0;
70436;PMS5003;57877;39.750;-104.894;2022-10-16T07:26:40;0;0;
70436;PMS5003;57877;39.750;-104.894;2022-10-16T07:29:06;0;0;
70436;PMS5003;57877;39.750;-104.894;2022-10-16T07:31:32;0;0;
70436;PMS5003;57877;39.750;-104.894;2022-10-16T07:33:58;1;0;
70436;PMS5003;57877;39.750;-104.894;2022-10-16T07:36:24;2;1;
70436;PMS5003;57877;39.750;-104.894;2022-10-16T07:38:50;0;0;
70436;PMS5003;57877;39.750;-104.894;2022-10-16T07:41:16;0;0;
70436;PMS5003;57877;39.750;-104.894;2022-10-16T07:43:45;0;0;
70436;PMS5003;57877;39.750;-104.894;2022-10-16T07:46:07;0;0;
70436;PMS5003;57877;39.750;-104.894;2022-10-16T07:48:33;2;2;
70436;PMS5003;57877;39.750;-104.894;2022-10-16T07:50:59;1;1;
70436;PMS5003;57877;39.750;-104.894;2022-10-16T07:53:25;0;0;
70436;PMS5003;57877;39.750;-104.894;2022-10-16T07:55:51;0;0;
70436;PMS5003;57877;39.750;-104.894;2022-10-16T07:58:17;0;0;
70436;PMS5003;57877;39.750;-104.894;2022-10-16T08:00:43;0;0;
70436;PMS5003;57877;39.750;-104.894;2022-10-16T08:03:09;1;0;
70436;PMS5003;57877;39.750;-104.894;2022-10-16T08:05:35;0;0;
70436;PMS5003;57877;39.750;-104.894;2022-10-16T08:08:01;0;0;
70436;PMS5003;57877;39.750;-104.894;2022-10-16T08:10:27;0;0;
70436;PMS5003;57877;39.750;-104.894;2022-10-16T08:12:52;1;1;
70436;PMS5003;57877;39.750;-104.894;2022-10-16T08:15:19;0;0;
70436;PMS5003;57877;39.750;-104.894;2022-10-16T08:17:44;2;1;
70436;PMS5003;57877;39.750;-104.894;2022-10-16T08:20:11;0;0;
70436;PMS5003;57877;39.750;-104.894;2022-10-16T08:22:36;0;0;
70436;PMS5003;57877;39.750;-104.894;2022-10-16T08:25:02;0;0;
70436;PMS5003;57877;39.750;-104.894;2022-10-16T08:27:30;0;0;
70436;PMS5003;57877;39.750;-104.894;2022-10-16T08:29:54;0;0;
70436;PMS5003;57877;39.750;-104.894;2022-10-16T08:32:20;0;0;
70436;PMS5003;57877;39.750;-104.894;2022-10-16T08:34:46;0;0;
70436;PMS5003;57877;39.750;-104.894;2022-10-16T08:37:12;0;0;
70436;PMS5003;57877;39.750;-104.894;2022-10-16T08:39:38;0;0;
70436;PMS5003;57877;39.750;-104.894;2022-10-16T08:42:08;0;0;
70436;PMS5003;57877;39.750;-104.894;2022-10-16T08:46:57;0;0;
70436;PMS5003;57877;39.750;-104.894;2022-10-16T08:49:21;0;0;
70436;PMS5003;57877;39.750;-104.894;2022-10-16T08:51:47;1;0;
70436;PMS5003;57877;39.750;-104.894;2022-10-16T08:54:19;1;1;
70436;PMS5003;57877;39.750;-104.894;2022-10-16T08:56:39;0;0;
70436;PMS5003;57877;39.750;-104.894;2022-10-16T08:59:06;3;1;
70436;PMS5003;57877;39.750;-104.894;2022-10-16T09:01:35;0;0;
70436;PMS5003;57877;39.750;-104.894;2022-10-16T09:04:03;1;0;
70436;PMS5003;57877;39.750;-104.894;2022-10-16T09:06:26;2;2;
70436;PMS5003;57877;39.750;-104.894;2022-10-16T09:08:53;2;2;
70436;PMS5003;57877;39.750;-104.894;2022-10-16T09:11:17;1;1;
70436;PMS5003;57877;39.750;-104.894;2022-10-16T09:13:45;1;1;
70436;PMS5003;57877;39.750;-104.894;2022-10-16T09:16:11;0;0;
70436;PMS5003;57877;39.750;-104.894;2022-10-16T09:18:34;0;0;
70436;PMS5003;57877;39.750;-104.894;2022-10-16T09:21:00;1;0;
70436;PMS5003;57877;39.750;-104.894;2022-10-16T09:23:25;0;0;
70436;PMS5003;57877;39.750;-104.894;2022-10-16T09:25:50;0;0;
70436;PMS5003;57877;39.750;-104.894;2022-10-16T09:28:17;0;0;
70436;PMS5003;57877;39.750;-104.894;2022-10-16T09:30:42;1;1;
70436;PMS5003;57877;39.750;-104.894;2022-10-16T09:33:09;2;2;
70436;PMS5003;57877;39.750;-104.894;2022-10-16T09:35:36;1;1;
70436;PMS5003;57877;39.750;-104.894;2022-10-16T09:38:00;2;1;
70436;PMS5003;57877;39.750;-104.894;2022-10-16T09:40:26;3;2;
70436;PMS5003;57877;39.750;-104.894;2022-10-16T09:42:52;2;1;
70436;PMS5003;57877;39.750;-104.894;2022-10-16T09:45:21;1;1;
70436;PMS5003;57877;39.750;-104.894;2022-10-16T09:47:44;2;2;
70436;PMS5003;57877;39.750;-104.894;2022-10-16T09:50:20;3;3;
70436;PMS5003;57877;39.750;-104.894;2022-10-16T09:52:36;2;1;
70436;PMS5003;57877;39.750;-104.894;2022-10-16T09:55:02;1;1;
70436;PMS5003;57877;39.750;-104.894;2022-10-16T09:57:27;1;1;
70436;PMS5003;57877;39.750;-104.894;2022-10-16T09:59:54;4;2;
70436;PMS5003;57877;39.750;-104.894;2022-10-16T10:02:20;3;3;
70436;PMS5003;57877;39.750;-104.894;2022-10-16T10:04:48;3;3;
70436;PMS5003;57877;39.750;-104.894;2022-10-16T10:09:37;2;2;
70436;PMS5003;57877;39.750;-104.894;2022-10-16T10:12:03;3;3;
70436;PMS5003;57877;39.750;-104.894;2022-10-16T10:14:31;4;4;
70436;PMS5003;57877;39.750;-104.894;2022-10-16T10:19:21;5;5;
70436;PMS5003;57877;39.750;-104.894;2022-10-16T10:21:47;3;3;
70436;PMS5003;57877;39.750;-104.894;2022-10-16T10:24:13;2;2;
70436;PMS5003;57877;39.750;-104.894;2022-10-16T10:26:39;3;2;
70436;PMS5003;57877;39.750;-104.894;2022-10-16T10:29:05;3;3;
70436;PMS5003;57877;39.750;-104.894;2022-10-16T10:31:32;3;3;
70436;PMS5003;57877;39.750;-104.894;2022-10-16T10:33:58;1;1;
70436;PMS5003;57877;39.750;-104.894;2022-10-16T10:36:27;4;4;
70436;PMS5003;57877;39.750;-104.894;2022-10-16T10:38:50;3;2;
70436;PMS5003;57877;39.750;-104.894;2022-10-16T10:41:20;3;3;
70436;PMS5003;57877;39.750;-104.894;2022-10-16T10:43:43;3;3;
70436;PMS5003;57877;39.750;-104.894;2022-10-16T10:46:07;3;3;
70436;PMS5003;57877;39.750;-104.894;2022-10-16T10:51:00;3;3;
70436;PMS5003;57877;39.750;-104.894;2022-10-16T10:53:29;1;1;
70436;PMS5003;57877;39.750;-104.894;2022-10-16T10:55:51;4;3;
70436;PMS5003;57877;39.750;-104.894;2022-10-16T10:58:21;4;4;
70436;PMS5003;57877;39.750;-104.894;2022-10-16T11:00:44;4;4;
70436;PMS5003;57877;39.750;-104.894;2022-10-16T11:03:09;4;4;
70436;PMS5003;57877;39.750;-104.894;2022-10-16T11:05:37;2;2;
70436;PMS5003;57877;39.750;-104.894;2022-10-16T11:08:00;3;3;
70436;PMS5003;57877;39.750;-104.894;2022-10-16T11:10:27;4;4;
70436;PMS5003;57877;39.750;-104.894;2022-10-16T11:12:53;4;4;
70436;PMS5003;57877;39.750;-104.894;2022-10-16T11:15:18;2;2;
70436;PMS5003;57877;39.750;-104.894;2022-10-16T11:17:45;5;5;
70436;PMS5003;57877;39.750;-104.894;2022-10-16T11:20:12;2;2;
70436;PMS5003;57877;39.750;-104.894;2022-10-16T11:22:36;3;2;
70436;PMS5003;57877;39.750;-104.894;2022-10-16T11:25:04;4;3;
70436;PMS5003;57877;39.750;-104.894;2022-10-16T11:27:30;2;2;
70436;PMS5003;57877;39.750;-104.894;2022-10-16T11:29:55;4;3;
70436;PMS5003;57877;39.750;-104.894;2022-10-16T11:32:21;4;4;
70436;PMS5003;57877;39.750;-104.894;2022-10-16T11:34:47;2;2;
70436;PMS5003;57877;39.750;-104.894;2022-10-16T11:37:12;3;3;
70436;PMS5003;57877;39.750;-104.894;2022-10-16T11:39:37;4;4;
70436;PMS5003;57877;39.750;-104.894;2022-10-16T11:42:05;2;2;
70436;PMS5003;57877;39.750;-104.894;2022-10-16T11:46:59;4;4;
70436;PMS5003;57877;39.750;-104.894;2022-10-16T11:49:22;3;3;
70436;PMS5003;57877;39.750;-104.894;2022-10-16T11:51:48;3;3;
70436;PMS5003;57877;39.750;-104.894;2022-10-16T11:54:16;3;3;
70436;PMS5003;57877;39.750;-104.894;2022-10-16T11:56:40;3;3;
70436;PMS5003;57877;39.750;-104.894;2022-10-16T11:59:06;4;3;
70436;PMS5003;57877;39.750;-104.894;2022-10-16T12:01:32;3;2;
70436;PMS5003;57877;39.750;-104.894;2022-10-16T12:04:01;3;3;
70436;PMS5003;57877;39.750;-104.894;2022-10-16T12:06:25;5;3;
70436;PMS5003;57877;39.750;-104.894;2022-10-16T12:08:48;2;2;
70436;PMS5003;57877;39.750;-104.894;2022-10-16T12:13:42;2;2;
70436;PMS5003;57877;39.750;-104.894;2022-10-16T12:16:18;3;3;
70436;PMS5003;57877;39.750;-104.894;2022-10-16T12:18:32;4;4;
70436;PMS5003;57877;39.750;-104.894;2022-10-16T12:20:58;3;3;
70436;PMS5003;57877;39.750;-104.894;2022-10-16T12:23:24;4;4;
70436;PMS5003;57877;39.750;-104.894;2022-10-16T12:25:53;3;3;
70436;PMS5003;57877;39.750;-104.894;2022-10-16T12:28:18;4;4;
70436;PMS5003;57877;39.750;-104.894;2022-10-16T12:30:42;4;4;
70436;PMS5003;57877;39.750;-104.894;2022-10-16T12:35:34;2;1;
70436;PMS5003;57877;39.750;-104.894;2022-10-16T12:40:27;4;4;
70436;PMS5003;57877;39.750;-104.894;2022-10-16T12:42:52;2;2;
70436;PMS5003;57877;39.750;-104.894;2022-10-16T12:47:48;2;2;
70436;PMS5003;57877;39.750;-104.894;2022-10-16T12:52:36;4;4;
70436;PMS5003;57877;39.750;-104.894;2022-10-16T12:55:02;5;4;
70436;PMS5003;57877;39.750;-104.894;2022-10-16T12:57:32;3;3;
70436;PMS5003;57877;39.750;-104.894;2022-10-16T12:59:56;3;3;
70436;PMS5003;57877;39.750;-104.894;2022-10-16T13:02:34;2;2;
70436;PMS5003;57877;39.750;-104.894;2022-10-16T13:04:50;3;3;
70436;PMS5003;57877;39.750;-104.894;2022-10-16T13:07:17;2;2;
70436;PMS5003;57877;39.750;-104.894;2022-10-16T13:09:41;4;4;
70436;PMS5003;57877;39.750;-104.894;2022-10-16T13:14:34;3;3;
70436;PMS5003;57877;39.750;-104.894;2022-10-16T13:16:57;3;3;
70436;PMS5003;57877;39.750;-104.894;2022-10-16T13:19:23;4;4;
70436;PMS5003;57877;39.750;-104.894;2022-10-16T13:21:49;4;4;
70436;PMS5003;57877;39.750;-104.894;2022-10-16T13:24:17;3;2;
70436;PMS5003;57877;39.750;-104.894;2022-10-16T13:26:40;4;3;
70436;PMS5003;57877;39.750;-104.894;2022-10-16T13:29:05;3;3;
70436;PMS5003;57877;39.750;-104.894;2022-10-16T13:31:31;4;4;
70436;PMS5003;57877;39.750;-104.894;2022-10-16T13:33:57;3;3;
70436;PMS5003;57877;39.750;-104.894;2022-10-16T13:36:24;3;3;
70436;PMS5003;57877;39.750;-104.894;2022-10-16T13:38:51;3;3;
70436;PMS5003;57877;39.750;-104.894;2022-10-16T13:41:16;2;2;
70436;PMS5003;57877;39.750;-104.894;2022-10-16T13:43:41;4;4;
70436;PMS5003;57877;39.750;-104.894;2022-10-16T13:46:10;3;3;
70436;PMS5003;57877;39.750;-104.894;2022-10-16T13:48:33;5;5;
70436;PMS5003;57877;39.750;-104.894;2022-10-16T13:50:59;4;3;
70436;PMS5003;57877;39.750;-104.894;2022-10-16T13:53:25;4;4;
70436;PMS5003;57877;39.750;-104.894;2022-10-16T13:55:51;4;4;
70436;PMS5003;57877;39.750;-104.894;2022-10-16T13:58:17;4;4;
70436;PMS5003;57877;39.750;-104.894;2022-10-16T14:03:13;6;6;
70436;PMS5003;57877;39.750;-104.894;2022-10-16T14:05:35;7;7;
70436;PMS5003;57877;39.750;-104.894;2022-10-16T14:08:01;5;4;
70436;PMS5003;57877;39.750;-104.894;2022-10-16T14:10:27;5;5;
70436;PMS5003;57877;39.750;-104.894;2022-10-16T14:12:56;7;6;
70436;PMS5003;57877;39.750;-104.894;2022-10-16T14:15:18;5;5;
70436;PMS5003;57877;39.750;-104.894;2022-10-16T14:17:45;6;6;
70436;PMS5003;57877;39.750;-104.894;2022-10-16T14:20:12;5;4;
70436;PMS5003;57877;39.750;-104.894;2022-10-16T14:22:37;3;3;
70436;PMS5003;57877;39.750;-104.894;2022-10-16T14:25:15;5;5;
70436;PMS5003;57877;39.750;-104.894;2022-10-16T14:27:29;3;3;
70436;PMS5003;57877;39.750;-104.894;2022-10-16T14:32:22;7;6;
70436;PMS5003;57877;39.750;-104.894;2022-10-16T14:34:52;5;4;
70436;PMS5003;57877;39.750;-104.894;2022-10-16T14:37:14;5;4;
70436;PMS5003;57877;39.750;-104.894;2022-10-16T14:39:38;4;4;
70436;PMS5003;57877;39.750;-104.894;2022-10-16T14:42:04;5;4;
70436;PMS5003;57877;39.750;-104.894;2022-10-16T14:44:31;4;3;
70436;PMS5003;57877;39.750;-104.894;2022-10-16T14:46:56;7;6;
70436;PMS5003;57877;39.750;-104.894;2022-10-16T14:49:22;5;4;
70436;PMS5003;57877;39.750;-104.894;2022-10-16T14:51:48;6;5;
70436;PMS5003;57877;39.750;-104.894;2022-10-16T14:54:15;5;5;
70436;PMS5003;57877;39.750;-104.894;2022-10-16T14:56:44;5;5;
70436;PMS5003;57877;39.750;-104.894;2022-10-16T14:59:07;3;3;
70436;PMS5003;57877;39.750;-104.894;2022-10-16T15:01:32;5;5;
70436;PMS5003;57877;39.750;-104.894;2022-10-16T15:03:58;5;5;
70436;PMS5003;57877;39.750;-104.894;2022-10-16T15:06:24;5;4;
70436;PMS5003;57877;39.750;-104.894;2022-10-16T15:08:50;5;5;
70436;PMS5003;57877;39.750;-104.894;2022-10-16T15:11:16;4;4;
70436;PMS5003;57877;39.750;-104.894;2022-10-16T15:13:41;6;5;
70436;PMS5003;57877;39.750;-104.894;2022-10-16T15:16:08;6;6;
70436;PMS5003;57877;39.750;-104.894;2022-10-16T15:18:33;4;4;
70436;PMS5003;57877;39.750;-104.894;2022-10-16T15:20:59;6;6;
70436;PMS5003;57877;39.750;-104.894;2022-10-16T15:23:25;6;6;
70436;PMS5003;57877;39.750;-104.894;2022-10-16T15:25:53;6;6;
70436;PMS5003;57877;39.750;-104.894;2022-10-16T15:28:17;3;3;
70436;PMS5003;57877;39.750;-104.894;2022-10-16T15:30:44;4;4;
70436;PMS5003;57877;39.750;-104.894;2022-10-16T15:33:11;4;4;
70436;PMS5003;57877;39.750;-104.894;2022-10-16T15:35:35;4;4;
70436;PMS5003;57877;39.750;-104.894;2022-10-16T15:38:01;6;5;
70436;PMS5003;57877;39.750;-104.894;2022-10-16T15:40:27;5;5;
70436;PMS5003;57877;39.750;-104.894;2022-10-16T15:42:54;5;5;
70436;PMS5003;57877;39.750;-104.894;2022-10-16T15:45:19;4;4;
70436;PMS5003;57877;39.750;-104.894;2022-10-16T15:47:45;4;4;
70436;PMS5003;57877;39.750;-104.894;2022-10-16T15:50:12;5;5;
70436;PMS5003;57877;39.750;-104.894;2022-10-16T15:52:37;4;4;
70436;PMS5003;57877;39.750;-104.894;2022-10-16T15:55:03;4;4;
70436;PMS5003;57877;39.750;-104.894;2022-10-16T15:57:29;4;4;
70436;PMS5003;57877;39.750;-104.894;2022-10-16T15:59:55;3;3;
70436;PMS5003;57877;39.750;-104.894;2022-10-16T16:02:21;4;4;
70436;PMS5003;57877;39.750;-104.894;2022-10-16T16:04:47;6;5;
70436;PMS5003;57877;39.750;-104.894;2022-10-16T16:07:13;4;3;
70436;PMS5003;57877;39.750;-104.894;2022-10-16T16:09:39;3;3;
70436;PMS5003;57877;39.750;-104.894;2022-10-16T16:12:05;5;5;
70436;PMS5003;57877;39.750;-104.894;2022-10-16T16:14:31;7;6;
70436;PMS5003;57877;39.750;-104.894;2022-10-16T16:16:57;3;3;
70436;PMS5003;57877;39.750;-104.894;2022-10-16T16:19:23;4;4;
70436;PMS5003;57877;39.750;-104.894;2022-10-16T16:21:49;4;4;
70436;PMS5003;57877;39.750;-104.894;2022-10-16T16:24:15;4;4;
70436;PMS5003;57877;39.750;-104.894;2022-10-16T16:26:41;4;4;